createdAt,value
2019-03-22T00:01:44.589Z,6.19
2019-03-22T00:04:13.160Z,6.18
2019-03-22T00:06:41.659Z,6.16
2019-03-22T00:09:11.605Z,6.14
2019-03-22T00:11:40.183Z,6.11
2019-03-22T00:14:08.648Z,6.09
2019-03-22T00:16:37.254Z,6.08
2019-03-22T00:19:05.867Z,6.08
2019-03-22T00:21:34.331Z,6.07
2019-03-22T00:24:02.851Z,6.06
2019-03-22T00:26:32.529Z,6.08
2019-03-22T00:29:01.539Z,6.06
2019-03-22T00:31:30.077Z,6.04
2019-03-22T00:33:58.613Z,6.01
2019-03-22T00:36:27.163Z,5.96
2019-03-22T00:38:55.802Z,5.92
2019-03-22T00:41:24.336Z,5.86
2019-03-22T00:43:53.011Z,5.81
2019-03-22T00:46:21.543Z,5.74
2019-03-22T00:48:50.077Z,5.65
2019-03-22T00:51:18.611Z,5.56
2019-03-22T00:53:47.186Z,5.50
2019-03-22T00:56:15.661Z,5.43
2019-03-22T00:58:44.195Z,5.38
2019-03-22T01:01:15.200Z,5.30
2019-03-22T01:03:43.828Z,5.20
2019-03-22T01:06:12.448Z,5.12
2019-03-22T01:08:40.994Z,5.02
2019-03-22T01:11:09.605Z,4.95
2019-03-22T01:13:38.222Z,4.88
2019-03-22T01:16:06.714Z,4.81
2019-03-22T01:18:35.322Z,4.76
2019-03-22T01:21:03.886Z,4.73
2019-03-22T01:23:32.485Z,4.71
2019-03-22T01:26:01.088Z,4.65
2019-03-22T01:28:29.618Z,4.59
2019-03-22T01:30:58.232Z,4.54
2019-03-22T01:33:26.766Z,4.45
2019-03-22T01:35:55.372Z,4.38
2019-03-22T01:38:24.015Z,4.32
2019-03-22T01:40:52.545Z,4.30
2019-03-22T01:43:21.167Z,4.28
2019-03-22T01:45:49.775Z,4.29
2019-03-22T01:48:18.313Z,4.25
2019-03-22T01:50:46.888Z,4.25
2019-03-22T01:53:15.569Z,4.24
2019-03-22T01:55:44.183Z,4.23
2019-03-22T01:58:12.758Z,4.19
2019-03-22T02:00:47.379Z,4.17
2019-03-22T02:03:13.251Z,4.12
2019-03-22T02:05:48.899Z,4.08
2019-03-22T02:08:17.795Z,4.08
2019-03-22T02:10:46.428Z,4.06
2019-03-22T02:13:14.972Z,4.07
2019-03-22T02:15:43.680Z,4.06
2019-03-22T02:18:12.226Z,4.06
2019-03-22T02:20:43.297Z,4.10
2019-03-22T02:23:11.905Z,4.09
2019-03-22T02:25:40.490Z,4.13
2019-03-22T02:28:09.186Z,4.14
2019-03-22T02:30:37.663Z,4.15
2019-03-22T02:33:06.271Z,4.16
2019-03-22T02:35:34.909Z,4.16
2019-03-22T02:38:03.481Z,4.19
2019-03-22T02:40:31.981Z,4.22
2019-03-22T02:43:00.520Z,4.22
2019-03-22T02:45:29.123Z,4.24
2019-03-22T02:47:57.731Z,4.26
2019-03-22T02:50:26.380Z,4.25
2019-03-22T02:52:54.844Z,4.26
2019-03-22T02:55:23.379Z,4.28
2019-03-22T02:57:51.963Z,4.31
2019-03-22T03:00:20.598Z,4.30
2019-03-22T03:02:49.265Z,4.30
2019-03-22T03:05:17.883Z,4.30
2019-03-22T03:07:46.514Z,4.31
2019-03-22T03:10:16.421Z,4.31
2019-03-22T03:12:45.361Z,4.31
2019-03-22T03:15:20.089Z,4.33
2019-03-22T03:17:50.732Z,4.34
2019-03-22T03:20:19.938Z,4.34
2019-03-22T03:22:48.590Z,4.33
2019-03-22T03:25:18.115Z,4.35
2019-03-22T03:27:46.785Z,4.37
2019-03-22T03:30:17.907Z,4.42
2019-03-22T03:32:46.553Z,4.46
2019-03-22T03:35:17.623Z,4.49
2019-03-22T03:37:46.149Z,4.50
2019-03-22T03:40:17.597Z,4.52
2019-03-22T03:42:46.089Z,4.54
2019-03-22T03:45:31.952Z,4.57
2019-03-22T03:48:02.647Z,4.61
2019-03-22T03:50:31.263Z,4.64
2019-03-22T03:52:59.871Z,4.70
2019-03-22T03:55:29.230Z,4.71
2019-03-22T03:57:58.205Z,4.72
2019-03-22T04:00:28.146Z,4.75
2019-03-22T04:02:56.767Z,4.78
2019-03-22T04:05:25.782Z,4.81
2019-03-22T04:07:54.323Z,4.82
2019-03-22T04:10:22.965Z,4.84
2019-03-22T04:12:51.537Z,4.88
2019-03-22T04:15:20.209Z,4.89
2019-03-22T04:17:48.826Z,4.88
2019-03-22T04:20:17.362Z,4.90
2019-03-22T04:22:45.896Z,4.91
2019-03-22T04:25:14.474Z,4.91
2019-03-22T04:27:43.021Z,4.93
2019-03-22T04:30:11.723Z,4.88
2019-03-22T04:32:40.215Z,4.87
2019-03-22T04:35:14.447Z,4.87
2019-03-22T04:37:43.081Z,4.88
2019-03-22T04:40:26.651Z,4.88
2019-03-22T04:42:55.283Z,4.85
2019-03-22T04:45:26.658Z,4.85
2019-03-22T04:48:03.994Z,4.87
2019-03-22T04:50:34.847Z,4.92
2019-03-22T04:53:04.413Z,4.92
2019-03-22T04:55:34.552Z,4.94
2019-03-22T04:58:04.019Z,4.93
2019-03-22T05:00:33.825Z,4.95
2019-03-22T05:03:03.459Z,4.95
2019-03-22T05:05:33.514Z,4.96
2019-03-22T05:08:02.881Z,4.99
2019-03-22T05:10:32.819Z,5.01
2019-03-22T05:13:02.451Z,5.03
2019-03-22T05:15:32.983Z,5.03
2019-03-22T05:18:02.937Z,5.06
2019-03-22T05:20:33.821Z,5.11
2019-03-22T05:23:03.694Z,5.14
2019-03-22T05:25:34.401Z,5.19
2019-03-22T05:28:04.713Z,5.22
2019-03-22T05:30:51.208Z,5.23
2019-03-22T05:33:19.685Z,5.26
2019-03-22T05:35:50.860Z,5.26
2019-03-22T05:38:19.395Z,5.28
2019-03-22T05:40:47.934Z,5.32
2019-03-22T05:43:16.402Z,5.38
2019-03-22T05:45:47.680Z,5.42
2019-03-22T05:48:16.294Z,5.48
2019-03-22T05:50:44.834Z,5.52
2019-03-22T05:53:13.374Z,5.55
2019-03-22T05:55:41.984Z,5.59
2019-03-22T05:58:10.599Z,5.64
2019-03-22T06:00:39.147Z,5.68
2019-03-22T06:03:07.685Z,5.71
2019-03-22T06:05:36.221Z,5.75
2019-03-22T06:08:04.827Z,5.78
2019-03-22T06:10:33.368Z,5.82
2019-03-22T06:13:01.852Z,5.83
2019-03-22T06:15:30.391Z,5.86
2019-03-22T06:17:58.929Z,5.89
2019-03-22T06:20:27.536Z,5.94
2019-03-22T06:22:56.039Z,5.97
2019-03-22T06:25:24.506Z,6.03
2019-03-22T06:27:53.130Z,6.09
2019-03-22T06:30:23.331Z,6.15
2019-03-22T06:32:51.955Z,6.24
2019-03-22T06:35:20.489Z,6.31
2019-03-22T06:37:49.133Z,6.36
2019-03-22T06:40:17.774Z,6.37
2019-03-22T06:42:46.380Z,6.44
2019-03-22T06:45:15.030Z,6.51
2019-03-22T06:47:49.242Z,6.57
2019-03-22T06:50:17.838Z,6.66
2019-03-22T06:52:46.382Z,6.73
2019-03-22T06:55:15.030Z,6.80
2019-03-22T06:57:43.572Z,6.84
2019-03-22T07:00:13.615Z,6.91
2019-03-22T07:02:42.185Z,6.98
2019-03-22T07:05:13.451Z,7.07
2019-03-22T07:07:41.037Z,7.17
2019-03-22T07:10:10.141Z,7.26
2019-03-22T07:12:38.754Z,7.32
2019-03-22T07:15:08.173Z,7.39
2019-03-22T07:17:36.823Z,7.45
2019-03-22T07:20:06.723Z,7.55
2019-03-22T07:22:36.490Z,7.61
2019-03-22T07:25:07.303Z,7.65
2019-03-22T07:27:37.546Z,7.70
2019-03-22T07:30:18.651Z,7.73
2019-03-22T07:32:41.718Z,7.78
2019-03-22T07:35:10.443Z,7.84
2019-03-22T07:37:39.081Z,7.90
2019-03-22T07:40:08.846Z,7.94
2019-03-22T07:42:37.378Z,7.99
2019-03-22T07:45:08.046Z,8.03
2019-03-22T07:47:36.622Z,8.07
2019-03-22T07:50:07.603Z,8.15
2019-03-22T07:52:36.209Z,8.25
2019-03-22T07:55:06.481Z,8.33
2019-03-22T07:57:35.119Z,8.43
2019-03-22T08:00:05.317Z,8.51
2019-03-22T08:02:33.856Z,8.60
2019-03-22T08:05:02.393Z,8.69
2019-03-22T08:07:30.966Z,8.81
2019-03-22T08:09:59.646Z,8.97
2019-03-22T08:12:31.174Z,9.14
2019-03-22T08:15:01.390Z,9.30
2019-03-22T08:17:29.993Z,9.53
2019-03-22T08:19:58.668Z,9.70
2019-03-22T08:22:27.121Z,9.68
2019-03-22T08:24:55.577Z,9.71
2019-03-22T08:27:24.565Z,9.84
2019-03-22T08:29:53.117Z,9.94
2019-03-22T08:32:21.631Z,9.91
2019-03-22T08:34:50.250Z,9.81
2019-03-22T08:37:18.772Z,9.77
2019-03-22T08:39:47.395Z,9.77
2019-03-22T08:42:16.123Z,9.74
2019-03-22T08:44:44.724Z,9.71
2019-03-22T08:47:13.295Z,9.70
2019-03-22T08:49:42.052Z,9.72
2019-03-22T08:52:10.739Z,9.70
2019-03-22T08:54:39.327Z,9.68
2019-03-22T08:57:07.861Z,9.68
2019-03-22T08:59:36.438Z,9.65
2019-03-22T09:02:08.169Z,9.61
2019-03-22T09:04:35.487Z,9.54
2019-03-22T09:07:04.032Z,9.48
2019-03-22T09:09:41.312Z,9.44
2019-03-22T09:12:02.905Z,9.33
2019-03-22T09:14:31.451Z,9.25
2019-03-22T09:17:01.320Z,9.22
2019-03-22T09:19:29.898Z,9.18
2019-03-22T09:21:59.571Z,9.13
2019-03-22T09:24:38.661Z,9.11
2019-03-22T09:26:58.844Z,9.13
2019-03-22T09:29:27.457Z,9.10
2019-03-22T09:31:55.949Z,9.11
2019-03-22T09:34:33.556Z,9.12
2019-03-22T09:36:54.828Z,9.12
2019-03-22T09:39:23.243Z,9.08
2019-03-22T09:41:52.104Z,9.06
2019-03-22T09:44:20.708Z,8.98
2019-03-22T09:46:49.283Z,8.95
2019-03-22T09:49:17.926Z,8.96
2019-03-22T09:51:46.549Z,8.89
2019-03-22T09:54:15.046Z,8.82
2019-03-22T09:56:47.239Z,8.80
2019-03-22T09:59:13.959Z,8.80
2019-03-22T10:01:42.381Z,8.87
2019-03-22T10:04:10.898Z,8.91
2019-03-22T10:06:39.511Z,8.95
2019-03-22T10:09:08.155Z,8.98
2019-03-22T10:11:36.768Z,9.06
2019-03-22T10:14:05.434Z,9.11
2019-03-22T10:16:34.907Z,9.10
2019-03-22T10:19:03.502Z,9.08
2019-03-22T10:21:32.123Z,9.17
2019-03-22T10:24:00.736Z,9.25
2019-03-22T10:26:29.225Z,9.30
2019-03-22T10:28:57.835Z,9.38
2019-03-22T10:31:36.607Z,9.51
2019-03-22T10:33:56.717Z,9.61
2019-03-22T10:36:25.274Z,9.75
2019-03-22T10:38:53.883Z,9.80
2019-03-22T10:41:22.504Z,9.88
2019-03-22T10:43:51.025Z,9.99
2019-03-22T10:46:19.638Z,10.12
2019-03-22T10:48:48.212Z,10.19
2019-03-22T10:51:17.037Z,10.24
2019-03-22T10:53:45.580Z,10.26
2019-03-22T10:56:14.048Z,10.27
2019-03-22T10:58:44.567Z,10.42
2019-03-22T11:01:12.956Z,10.49
2019-03-22T11:03:41.567Z,10.47
2019-03-22T11:06:10.135Z,10.50
2019-03-22T11:08:38.748Z,10.54
2019-03-22T11:11:07.394Z,10.68
2019-03-22T11:13:36.016Z,10.84
2019-03-22T11:16:04.832Z,10.99
2019-03-22T11:18:37.657Z,11.11
2019-03-22T11:21:05.515Z,11.22
2019-03-22T11:23:34.209Z,11.36
2019-03-22T11:26:04.413Z,11.35
2019-03-22T11:28:33.212Z,11.38
2019-03-22T11:31:04.996Z,11.39
2019-03-22T11:33:32.181Z,11.59
2019-03-22T11:36:00.802Z,11.74
2019-03-22T11:38:29.350Z,11.75
2019-03-22T11:40:57.974Z,11.67
2019-03-22T11:43:26.592Z,11.64
2019-03-22T11:45:55.208Z,11.56
2019-03-22T11:48:25.507Z,11.54
2019-03-22T11:50:54.219Z,11.52
2019-03-22T11:53:22.914Z,11.46
2019-03-22T11:55:51.525Z,11.28
2019-03-22T11:58:20.013Z,11.27
2019-03-22T12:00:48.546Z,11.35
2019-03-22T12:03:17.207Z,11.35
2019-03-22T12:05:45.804Z,11.34
2019-03-22T12:08:14.352Z,11.41
2019-03-22T12:10:42.964Z,11.50
2019-03-22T12:13:11.678Z,11.36
2019-03-22T12:15:40.141Z,11.36
2019-03-22T12:18:08.753Z,11.38
2019-03-22T12:20:37.364Z,11.33
2019-03-22T12:23:06.511Z,11.35
2019-03-22T12:25:35.121Z,11.35
2019-03-22T12:28:03.754Z,11.35
2019-03-22T12:30:32.218Z,11.34
2019-03-22T12:33:00.836Z,11.35
2019-03-22T12:35:29.497Z,11.35
2019-03-22T12:37:58.107Z,11.39
2019-03-22T12:40:27.021Z,11.45
2019-03-22T12:42:56.729Z,11.48
2019-03-22T12:45:30.802Z,11.62
2019-03-22T12:47:59.462Z,11.69
2019-03-22T12:50:28.677Z,11.82
2019-03-22T12:52:57.286Z,11.87
2019-03-22T12:55:25.909Z,11.80
2019-03-22T12:57:54.523Z,11.77
2019-03-22T13:00:25.216Z,11.77
2019-03-22T13:02:55.494Z,11.80
2019-03-22T13:05:24.232Z,11.76
2019-03-22T13:07:52.849Z,11.75
2019-03-22T13:10:26.475Z,11.75
2019-03-22T13:12:55.088Z,11.81
2019-03-22T13:15:23.771Z,11.85
2019-03-22T13:17:52.474Z,12.00
2019-03-22T13:20:21.118Z,12.03
2019-03-22T13:22:49.726Z,12.07
2019-03-22T13:25:21.177Z,12.11
2019-03-22T13:27:50.189Z,12.12
2019-03-22T13:30:21.781Z,12.00
2019-03-22T13:32:52.283Z,12.04
2019-03-22T13:35:20.521Z,12.08
2019-03-22T13:37:49.003Z,12.11
2019-03-22T13:40:17.547Z,12.14
2019-03-22T13:42:46.090Z,12.21
2019-03-22T13:45:15.705Z,12.22
2019-03-22T13:47:44.319Z,12.18
2019-03-22T13:50:14.017Z,12.19
2019-03-22T13:52:42.637Z,12.22
2019-03-22T13:55:11.488Z,12.21
2019-03-22T13:57:40.134Z,12.17
2019-03-22T14:00:11.497Z,12.08
2019-03-22T14:02:39.968Z,12.09
2019-03-22T14:05:09.368Z,11.95
2019-03-22T14:07:37.972Z,11.91
2019-03-22T14:10:09.330Z,11.94
2019-03-22T14:12:37.858Z,11.99
2019-03-22T14:15:09.548Z,11.99
2019-03-22T14:17:43.849Z,11.98
2019-03-22T14:20:12.508Z,11.99
2019-03-22T14:22:41.048Z,12.00
2019-03-22T14:25:09.762Z,11.98
2019-03-22T14:27:38.337Z,12.04
2019-03-22T14:30:08.993Z,12.10
2019-03-22T14:32:37.597Z,12.10
2019-03-22T14:35:07.602Z,12.09
2019-03-22T14:37:36.219Z,12.06
2019-03-22T14:40:06.746Z,11.92
2019-03-22T14:42:35.339Z,11.87
2019-03-22T14:45:06.189Z,11.89
2019-03-22T14:47:34.745Z,11.80
2019-03-22T14:50:03.756Z,11.73
2019-03-22T14:52:32.376Z,11.69
2019-03-22T14:55:00.850Z,11.71
2019-03-22T14:57:29.447Z,11.71
2019-03-22T14:59:59.278Z,11.70
2019-03-22T15:02:28.085Z,11.66
2019-03-22T15:04:56.653Z,11.61
2019-03-22T15:07:25.128Z,11.54
2019-03-22T15:09:53.706Z,11.41
2019-03-22T15:12:22.212Z,11.25
2019-03-22T15:15:08.901Z,11.09
2019-03-22T15:17:54.073Z,10.89
2019-03-22T15:20:24.463Z,10.79
2019-03-22T15:23:03.929Z,10.75
2019-03-22T15:25:34.291Z,10.70
2019-03-22T15:28:14.045Z,10.66
2019-03-22T15:30:53.446Z,10.63
2019-03-22T15:33:35.419Z,10.56
2019-03-22T15:36:17.746Z,10.50
2019-03-22T15:38:51.117Z,10.44
2019-03-22T15:41:21.423Z,10.38
2019-03-22T15:43:49.947Z,10.34
2019-03-22T15:46:18.638Z,10.31
2019-03-22T15:48:48.723Z,10.28
2019-03-22T15:51:17.269Z,10.28
2019-03-22T15:53:45.729Z,10.26
2019-03-22T15:56:14.389Z,10.21
2019-03-22T15:58:42.997Z,10.15
2019-03-22T16:01:11.796Z,10.14
2019-03-22T16:03:44.336Z,10.13
2019-03-22T16:06:10.822Z,10.05
2019-03-22T16:08:39.367Z,10.04
2019-03-22T16:11:07.984Z,10.00
2019-03-22T16:13:36.526Z,9.95
2019-03-22T16:16:08.679Z,9.92
2019-03-22T16:18:37.170Z,9.81
2019-03-22T16:21:05.701Z,9.82
2019-03-22T16:23:34.254Z,9.73
2019-03-22T16:26:02.860Z,9.64
2019-03-22T16:28:31.466Z,9.56
2019-03-22T16:31:00.074Z,9.49
2019-03-22T16:33:28.661Z,9.46
2019-03-22T16:35:57.214Z,9.46
2019-03-22T16:38:25.758Z,9.37
2019-03-22T16:40:54.428Z,9.31
2019-03-22T16:43:22.893Z,9.26
2019-03-22T16:45:51.496Z,9.24
2019-03-22T16:48:21.518Z,9.24
2019-03-22T16:50:50.237Z,9.25
2019-03-22T16:53:19.016Z,9.23
2019-03-22T16:55:50.443Z,9.22
2019-03-22T16:58:18.985Z,9.19
2019-03-22T17:00:49.790Z,9.16
2019-03-22T17:03:17.991Z,9.14
2019-03-22T17:05:46.532Z,9.12
2019-03-22T17:08:15.161Z,9.09
2019-03-22T17:10:43.760Z,9.07
2019-03-22T17:13:12.453Z,9.04
2019-03-22T17:15:41.138Z,9.01
2019-03-22T17:18:09.724Z,9.02
2019-03-22T17:20:38.261Z,9.00
2019-03-22T17:23:06.901Z,8.99
2019-03-22T17:25:35.505Z,8.98
2019-03-22T17:28:04.114Z,9.00
2019-03-22T17:30:32.617Z,8.99
2019-03-22T17:33:02.614Z,8.93
2019-03-22T17:35:31.165Z,8.88
2019-03-22T17:37:59.704Z,8.83
2019-03-22T17:40:28.248Z,8.77
2019-03-22T17:42:56.792Z,8.74
2019-03-22T17:45:25.430Z,8.72
2019-03-22T17:47:54.036Z,8.68
2019-03-22T17:50:22.691Z,8.69
2019-03-22T17:52:51.303Z,8.67
2019-03-22T17:55:19.878Z,8.66
2019-03-22T17:57:48.510Z,8.65
2019-03-22T18:00:20.565Z,8.64
2019-03-22T18:02:50.466Z,8.65
2019-03-22T18:05:19.134Z,8.65
2019-03-22T18:07:47.697Z,8.62
2019-03-22T18:10:16.448Z,8.57
2019-03-22T18:12:45.152Z,8.57
2019-03-22T18:15:14.446Z,8.54
2019-03-22T18:17:43.120Z,8.53
2019-03-22T18:20:14.327Z,8.54
2019-03-22T18:22:42.937Z,8.51
2019-03-22T18:25:13.263Z,8.50
2019-03-22T18:27:41.868Z,8.59
2019-03-22T18:30:15.815Z,8.59
2019-03-22T18:32:44.343Z,8.58
2019-03-22T18:35:13.384Z,8.59
2019-03-22T18:37:41.994Z,8.60
2019-03-22T18:40:15.211Z,8.56
2019-03-22T18:42:43.188Z,8.52
2019-03-22T18:45:14.045Z,8.52
2019-03-22T18:47:43.155Z,8.50
2019-03-22T18:50:13.211Z,8.49
2019-03-22T18:52:41.816Z,8.50
2019-03-22T18:55:11.184Z,8.51
2019-03-22T18:57:39.817Z,8.49
2019-03-22T19:00:11.601Z,8.47
2019-03-22T19:02:40.215Z,8.46
2019-03-22T19:05:09.222Z,8.44
2019-03-22T19:07:37.830Z,8.42
2019-03-22T19:10:09.359Z,8.41
2019-03-22T19:12:38.047Z,8.39
2019-03-22T19:15:09.281Z,8.36
2019-03-22T19:17:40.838Z,8.29
2019-03-22T19:20:14.313Z,8.28
2019-03-22T19:22:42.924Z,8.30
2019-03-22T19:25:11.938Z,8.29
2019-03-22T19:27:40.559Z,8.28
2019-03-22T19:30:16.770Z,8.29
2019-03-22T19:32:48.068Z,8.28
2019-03-22T19:35:16.741Z,8.27
2019-03-22T19:37:48.025Z,8.25
2019-03-22T19:40:17.230Z,8.25
2019-03-22T19:42:45.759Z,8.26
2019-03-22T19:45:16.758Z,8.27
2019-03-22T19:47:45.755Z,8.26
2019-03-22T19:50:15.965Z,8.25
2019-03-22T19:52:44.905Z,8.20
2019-03-22T19:55:14.032Z,8.20
2019-03-22T19:57:42.571Z,8.20
2019-03-22T20:00:17.129Z,8.22
2019-03-22T20:02:45.671Z,8.20
2019-03-22T20:05:31.512Z,8.20
2019-03-22T20:08:00.766Z,8.21
2019-03-22T20:10:29.367Z,8.20
2019-03-22T20:12:58.052Z,8.18
2019-03-22T20:15:26.581Z,8.17
2019-03-22T20:17:55.178Z,8.13
2019-03-22T20:20:24.049Z,8.10
2019-03-22T20:22:52.633Z,8.11
2019-03-22T20:25:21.239Z,8.08
2019-03-22T20:27:49.841Z,8.07
2019-03-22T20:30:19.252Z,8.07
2019-03-22T20:32:47.794Z,8.04
2019-03-22T20:35:17.133Z,8.02
2019-03-22T20:37:46.098Z,8.01
2019-03-22T20:40:19.552Z,8.00
2019-03-22T20:42:48.160Z,7.97
2019-03-22T20:45:23.911Z,7.95
2019-03-22T20:47:47.325Z,7.93
2019-03-22T20:50:16.538Z,7.90
2019-03-22T20:52:45.150Z,7.88
2019-03-22T20:55:14.064Z,7.83
2019-03-22T20:57:42.716Z,7.77
2019-03-22T21:00:16.061Z,7.74
2019-03-22T21:02:44.603Z,7.70
2019-03-22T21:05:26.405Z,7.65
2019-03-22T21:07:46.322Z,7.60
2019-03-22T21:10:14.966Z,7.55
2019-03-22T21:12:43.505Z,7.49
2019-03-22T21:15:23.903Z,7.47
2019-03-22T21:17:45.250Z,7.43
2019-03-22T21:20:14.257Z,7.39
2019-03-22T21:22:42.825Z,7.37
2019-03-22T21:25:11.900Z,7.36
2019-03-22T21:27:40.550Z,7.34
2019-03-22T21:30:12.002Z,7.33
2019-03-22T21:32:45.256Z,7.32
2019-03-22T21:35:21.901Z,7.35
2019-03-22T21:37:41.346Z,7.36
2019-03-22T21:40:13.353Z,7.34
2019-03-22T21:42:41.986Z,7.30
2019-03-22T21:45:11.298Z,7.27
2019-03-22T21:47:41.139Z,7.29
2019-03-22T21:50:10.546Z,7.30
2019-03-22T21:52:39.420Z,7.29
2019-03-22T21:55:11.101Z,7.29
2019-03-22T21:57:39.604Z,7.29
2019-03-22T22:00:10.553Z,7.27
2019-03-22T22:02:39.019Z,7.27
2019-03-22T22:05:08.651Z,7.26
2019-03-22T22:07:37.655Z,7.27
2019-03-22T22:10:08.099Z,7.28
2019-03-22T22:12:36.630Z,7.28
2019-03-22T22:15:11.204Z,7.27
2019-03-22T22:17:42.577Z,7.28
2019-03-22T22:20:11.957Z,7.25
2019-03-22T22:22:41.276Z,7.17
2019-03-22T22:25:10.188Z,7.09
2019-03-22T22:27:38.852Z,7.02
2019-03-22T22:30:09.824Z,6.96
2019-03-22T22:32:38.363Z,6.90
2019-03-22T22:35:08.381Z,6.79
2019-03-22T22:37:36.977Z,6.73
2019-03-22T22:40:07.554Z,6.61
2019-03-22T22:42:36.240Z,6.48
2019-03-22T22:45:09.572Z,6.38
2019-03-22T22:47:38.177Z,6.29
2019-03-22T22:50:10.942Z,6.19
2019-03-22T22:52:39.546Z,6.02
2019-03-22T22:55:08.187Z,5.92
2019-03-22T22:57:36.750Z,5.84
2019-03-22T23:00:14.240Z,5.75
2019-03-22T23:02:43.512Z,5.70
2019-03-22T23:05:12.578Z,5.63
2019-03-22T23:07:41.285Z,5.58
2019-03-22T23:10:12.605Z,5.56
2019-03-22T23:12:40.549Z,5.49
2019-03-22T23:15:10.359Z,5.43
2019-03-22T23:17:38.893Z,5.43
2019-03-22T23:20:10.866Z,5.48
2019-03-22T23:22:39.470Z,5.47
2019-03-22T23:25:16.164Z,5.44
2019-03-22T23:27:41.712Z,5.41
2019-03-22T23:30:13.678Z,5.33
2019-03-22T23:32:42.289Z,5.28
2019-03-22T23:35:11.133Z,5.25
2019-03-22T23:37:39.743Z,5.22
2019-03-22T23:40:09.251Z,5.18
2019-03-22T23:42:37.845Z,5.10
2019-03-22T23:45:08.139Z,5.00
2019-03-22T23:47:36.592Z,4.93
2019-03-22T23:50:09.760Z,4.86
2019-03-22T23:52:38.365Z,4.79
2019-03-22T23:55:07.798Z,4.68
2019-03-22T23:57:36.424Z,4.62
